Time;durP1;ratioP1;P1;durP2;ratioP2;P2;SDS_P1;SDS_P2;PMS_P1;PMS_P2;Temp;Humidity;BMP_temperature;BMP_pressure;BME280_temperature;BME280_humidity;BME280_pressure;Samples;Min_cycle;Max_cycle;Signal;HPM_P1;HPM_P2
2021/07/10 00:00:08;;;;;;;4.45;2.83;;;23.00;60.40;;;;;;5033558;28;20037;-74
2021/07/10 00:02:34;;;;;;;4.03;2.65;;;23.00;60.40;;;;;;5033346;28;20484;-74
2021/07/10 00:04:59;;;;;;;4.75;2.45;;;23.00;60.40;;;;;;5033476;28;20041;-74
2021/07/10 00:07:25;;;;;;;4.80;2.97;;;23.00;60.40;;;;;;5033509;28;20431;-74
2021/07/10 00:09:50;;;;;;;5.10;2.80;;;23.00;60.40;;;;;;5033341;28;20021;-74
2021/07/10 00:12:16;;;;;;;7.05;3.00;;;23.00;60.40;;;;;;5033539;28;20025;-74
2021/07/10 00:14:41;;;;;;;4.80;2.88;;;23.00;60.40;;;;;;5034172;28;20032;-73
2021/07/10 00:17:07;;;;;;;4.18;2.50;;;23.00;60.40;;;;;;5034088;28;20381;-74
2021/07/10 00:19:32;;;;;;;5.45;3.13;;;23.00;60.40;;;;;;5033678;28;20477;-74
2021/07/10 00:21:58;;;;;;;4.75;2.97;;;23.00;60.40;;;;;;5033541;28;20111;-74
2021/07/10 00:24:24;;;;;;;3.85;2.53;;;23.00;60.40;;;;;;5034664;28;20047;-74
2021/07/10 00:26:49;;;;;;;5.25;3.15;;;23.00;60.40;;;;;;5032797;28;20101;-74
2021/07/10 00:29:16;;;;;;;3.83;2.30;;;23.00;60.40;;;;;;5033191;28;20029;-74
2021/07/10 00:31:42;;;;;;;5.00;3.00;;;23.00;60.40;;;;;;5033287;28;20427;-74
2021/07/10 00:34:07;;;;;;;5.47;2.75;;;23.00;60.30;;;;;;5033033;28;20049;-74
2021/07/10 00:36:33;;;;;;;4.68;2.72;;;23.00;60.40;;;;;;5032993;28;20083;-74
2021/07/10 00:38:58;;;;;;;5.15;2.90;;;23.00;60.40;;;;;;5033302;28;20124;-74
2021/07/10 00:41:24;;;;;;;5.35;3.00;;;23.00;60.50;;;;;;5033019;28;20021;-74
2021/07/10 00:43:50;;;;;;;4.72;2.72;;;22.90;60.40;;;;;;5033313;28;20033;-74
2021/07/10 00:46:22;;;;;;;5.15;2.92;;;22.90;60.50;;;;;;5033269;28;20022;-74
2021/07/10 00:48:48;;;;;;;4.35;2.63;;;22.90;60.40;;;;;;5033119;28;20060;-74
2021/07/10 00:51:15;;;;;;;4.57;2.90;;;22.90;60.40;;;;;;5033050;28;20026;-74
2021/07/10 00:53:40;;;;;;;4.53;2.75;;;22.90;60.50;;;;;;5034033;28;20022;-74
2021/07/10 00:56:06;;;;;;;4.55;2.88;;;22.90;60.40;;;;;;5035709;28;20461;-74
2021/07/10 00:58:33;;;;;;;4.65;2.97;;;22.90;60.40;;;;;;5032898;28;20160;-74
2021/07/10 01:01:00;;;;;;;5.78;3.22;;;22.90;60.60;;;;;;5032978;28;20026;-74
2021/07/10 01:03:27;;;;;;;5.32;3.17;;;22.90;60.60;;;;;;5032989;28;20449;-74
2021/07/10 01:05:52;;;;;;;4.55;2.92;;;22.90;60.60;;;;;;5032694;28;20033;-74
2021/07/10 01:08:18;;;;;;;5.13;3.03;;;22.90;60.50;;;;;;5032640;28;20026;-74
2021/07/10 01:10:44;;;;;;;6.15;3.22;;;22.90;60.50;;;;;;5032920;28;20057;-74
2021/07/10 01:13:10;;;;;;;6.03;3.00;;;22.90;60.60;;;;;;5032662;28;20044;-74
2021/07/10 01:15:35;;;;;;;4.80;2.72;;;22.80;60.60;;;;;;5032876;28;20022;-74
2021/07/10 01:18:01;;;;;;;5.43;3.35;;;22.90;60.60;;;;;;5032795;28;20075;-74
2021/07/10 01:20:28;;;;;;;4.95;2.90;;;22.90;60.60;;;;;;5032765;28;20485;-74
2021/07/10 01:22:56;;;;;;;4.55;2.85;;;22.80;60.70;;;;;;5032613;28;20026;-74
2021/07/10 01:25:24;;;;;;;5.70;3.15;;;22.80;60.60;;;;;;5032732;28;20152;-73
2021/07/10 01:27:51;;;;;;;5.50;3.15;;;22.80;60.70;;;;;;5033039;28;20113;-74
2021/07/10 01:30:20;;;;;;;5.75;3.40;;;22.70;60.80;;;;;;5037991;28;20032;-75
2021/07/10 01:32:49;;;;;;;4.45;2.90;;;22.80;60.80;;;;;;5032531;28;20057;-74
2021/07/10 01:35:14;;;;;;;5.28;3.05;;;22.70;60.70;;;;;;5032466;28;20022;-74
2021/07/10 01:37:42;;;;;;;5.68;3.35;;;22.80;60.70;;;;;;5032589;28;20496;-74
2021/07/10 01:40:09;;;;;;;5.25;2.88;;;22.80;60.70;;;;;;5036031;28;20424;-73
2021/07/10 01:42:35;;;;;;;4.50;2.75;;;22.80;60.70;;;;;;5036115;28;20026;-74
2021/07/10 01:45:00;;;;;;;4.38;2.90;;;22.70;60.70;;;;;;5036226;28;20033;-74
2021/07/10 01:47:26;;;;;;;5.47;3.22;;;22.70;60.70;;;;;;5036056;28;20148;-74
2021/07/10 01:49:53;;;;;;;4.82;3.03;;;22.70;60.80;;;;;;5036032;28;20026;-74
2021/07/10 01:52:18;;;;;;;5.30;3.22;;;22.70;60.80;;;;;;5036153;28;20160;-74
2021/07/10 01:54:44;;;;;;;5.38;3.05;;;22.70;60.80;;;;;;5035973;28;20484;-74
2021/07/10 01:57:10;;;;;;;4.43;3.13;;;22.70;60.80;;;;;;5036085;28;20043;-74
2021/07/10 01:59:39;;;;;;;5.18;3.00;;;22.70;60.80;;;;;;5035920;28;20091;-74
2021/07/10 02:02:06;;;;;;;5.53;3.60;;;22.70;60.80;;;;;;5035764;28;20040;-74
2021/07/10 02:04:32;;;;;;;5.30;3.40;;;22.70;60.80;;;;;;5035762;28;20030;-74
2021/07/10 02:06:59;;;;;;;4.97;2.90;;;22.60;60.80;;;;;;5035988;28;20029;-74
2021/07/10 02:09:25;;;;;;;5.85;3.30;;;22.70;60.80;;;;;;5035870;28;20025;-74
2021/07/10 02:11:50;;;;;;;5.80;3.03;;;22.70;60.80;;;;;;5035609;28;20018;-74
2021/07/10 02:14:18;;;;;;;5.47;3.25;;;22.60;60.80;;;;;;5035560;28;20033;-74
2021/07/10 02:16:45;;;;;;;5.80;3.55;;;22.60;60.80;;;;;;5036027;28;20017;-73
2021/07/10 02:19:11;;;;;;;5.03;3.25;;;22.60;60.80;;;;;;5036246;28;20041;-74
2021/07/10 02:21:37;;;;;;;5.22;3.40;;;22.60;60.90;;;;;;5035932;28;20038;-72
2021/07/10 02:24:04;;;;;;;4.72;3.15;;;22.60;60.80;;;;;;5035616;28;20479;-74
2021/07/10 02:26:30;;;;;;;5.32;3.33;;;22.60;60.90;;;;;;5036559;28;20473;-74
2021/07/10 02:28:56;;;;;;;5.55;3.15;;;22.60;60.90;;;;;;5035414;28;20040;-73
2021/07/10 02:31:21;;;;;;;5.38;3.53;;;22.60;60.90;;;;;;5035371;28;20071;-73
2021/07/10 02:33:47;;;;;;;5.45;3.30;;;22.60;60.80;;;;;;5035061;28;20054;-74
2021/07/10 02:36:13;;;;;;;5.43;3.40;;;22.60;60.80;;;;;;5035063;28;20017;-73
2021/07/10 02:38:38;;;;;;;4.90;3.25;;;22.60;60.90;;;;;;5034983;28;20030;-74
2021/07/10 02:41:04;;;;;;;5.25;3.38;;;22.50;60.90;;;;;;5035325;28;20017;-74
2021/07/10 02:43:29;;;;;;;5.03;3.30;;;22.50;60.90;;;;;;5035028;28;20025;-74
2021/07/10 02:45:55;;;;;;;5.55;3.55;;;22.60;60.90;;;;;;5050441;28;20515;-73
2021/07/10 02:48:20;;;;;;;5.40;3.40;;;22.50;60.90;;;;;;5034957;28;20424;-74
2021/07/10 02:50:46;;;;;;;5.03;3.35;;;22.50;60.90;;;;;;5034264;28;20473;-73
2021/07/10 02:53:11;;;;;;;5.68;3.42;;;22.50;60.90;;;;;;5035040;28;20477;-73
2021/07/10 02:55:37;;;;;;;5.75;3.60;;;22.50;60.90;;;;;;5034943;28;20018;-74
2021/07/10 02:58:03;;;;;;;5.95;3.30;;;22.50;60.90;;;;;;5034671;28;20025;-73
2021/07/10 03:00:29;;;;;;;4.70;2.78;;;22.50;60.90;;;;;;5034741;28;20112;-74
2021/07/10 03:02:58;;;;;;;5.30;3.20;;;22.50;60.90;;;;;;5034804;28;20026;-73
2021/07/10 03:05:24;;;;;;;4.70;3.20;;;22.50;61.00;;;;;;5034989;28;20376;-73
2021/07/10 03:07:50;;;;;;;6.43;3.70;;;22.50;61.00;;;;;;5034631;28;20022;-74
2021/07/10 03:10:22;;;;;;;4.95;3.05;;;22.50;61.00;;;;;;5034877;28;20040;-74
2021/07/10 03:12:48;;;;;;;5.32;3.20;;;22.50;61.00;;;;;;5034586;28;20040;-74
2021/07/10 03:15:15;;;;;;;5.18;3.10;;;22.50;61.00;;;;;;5034394;28;20026;-74
2021/07/10 03:17:41;;;;;;;5.30;3.30;;;22.50;61.00;;;;;;5034477;28;20025;-74
2021/07/10 03:20:08;;;;;;;5.15;3.00;;;22.40;61.10;;;;;;5034316;28;20473;-73
2021/07/10 03:22:34;;;;;;;5.43;3.42;;;22.40;61.10;;;;;;5034383;28;20030;-73
2021/07/10 03:25:01;;;;;;;5.43;3.25;;;22.40;61.00;;;;;;5034364;28;20033;-74
2021/07/10 03:27:27;;;;;;;6.55;3.10;;;22.40;61.20;;;;;;5033029;28;20425;-74
2021/07/10 03:29:52;;;;;;;5.90;3.53;;;22.40;61.10;;;;;;5034139;28;20120;-74
2021/07/10 03:32:18;;;;;;;5.13;3.25;;;22.40;61.20;;;;;;5034034;28;20100;-73
2021/07/10 03:34:43;;;;;;;5.65;3.45;;;22.40;61.10;;;;;;5034413;28;20037;-73
2021/07/10 03:37:09;;;;;;;5.15;3.05;;;22.40;61.10;;;;;;5034376;28;20025;-73
2021/07/10 03:39:35;;;;;;;5.38;3.50;;;22.40;61.10;;;;;;5033935;28;20117;-74
2021/07/10 03:42:00;;;;;;;5.32;3.40;;;22.40;61.20;;;;;;5033889;28;20075;-74
2021/07/10 03:44:26;;;;;;;5.38;3.53;;;22.40;61.20;;;;;;5034246;28;20029;-73
2021/07/10 03:46:51;;;;;;;5.40;3.42;;;22.40;61.20;;;;;;5034616;28;20025;-75
2021/07/10 03:49:17;;;;;;;5.72;3.80;;;22.30;61.20;;;;;;5045348;28;20055;-75
2021/07/10 03:51:42;;;;;;;5.13;3.28;;;22.30;61.20;;;;;;5044561;28;20038;-76
2021/07/10 03:54:08;;;;;;;5.57;3.47;;;22.30;61.20;;;;;;5044753;28;20048;-74
2021/07/10 03:56:33;;;;;;;5.35;3.30;;;22.40;61.10;;;;;;5044608;28;20113;-75
2021/07/10 03:58:59;;;;;;;5.32;3.40;;;22.30;61.20;;;;;;5047659;28;20040;-73
2021/07/10 04:01:24;;;;;;;6.95;3.63;;;22.30;61.10;;;;;;5043707;28;20436;-74
2021/07/10 04:03:50;;;;;;;5.80;3.70;;;22.30;61.20;;;;;;5043877;28;20065;-74
2021/07/10 04:06:15;;;;;;;4.55;2.88;;;22.40;61.10;;;;;;5044265;28;20030;-74
2021/07/10 04:08:41;;;;;;;5.22;3.35;;;22.30;61.20;;;;;;5041523;28;20021;-74
2021/07/10 04:11:07;;;;;;;6.75;3.75;;;22.30;61.10;;;;;;5034161;28;20444;-74
2021/07/10 04:13:33;;;;;;;5.18;3.60;;;22.30;61.20;;;;;;5033342;28;20076;-74
2021/07/10 04:16:00;;;;;;;5.90;3.83;;;22.30;61.20;;;;;;5033579;28;20025;-74
2021/07/10 04:18:26;;;;;;;5.43;3.67;;;22.30;61.20;;;;;;5038513;28;20071;-73
2021/07/10 04:20:52;;;;;;;6.13;3.65;;;22.30;61.10;;;;;;5033602;28;20337;-74
2021/07/10 04:23:18;;;;;;;6.15;3.05;;;22.30;61.10;;;;;;5033302;28;20076;-74
2021/07/10 04:25:43;;;;;;;5.25;2.97;;;22.30;61.10;;;;;;5033231;28;20025;-74
2021/07/10 04:28:09;;;;;;;6.15;3.90;;;22.30;61.10;;;;;;5033519;28;20104;-73
2021/07/10 04:30:34;;;;;;;5.25;3.30;;;22.30;61.10;;;;;;5033881;28;20520;-74
2021/07/10 04:33:00;;;;;;;5.13;3.40;;;22.30;61.10;;;;;;5038156;28;20490;-73
2021/07/10 04:35:26;;;;;;;6.43;3.90;;;22.30;61.10;;;;;;5033171;28;20033;-74
2021/07/10 04:37:51;;;;;;;6.50;4.05;;;22.20;61.10;;;;;;5032959;28;20026;-74
2021/07/10 04:40:17;;;;;;;5.82;3.28;;;22.30;61.10;;;;;;5032993;28;20458;-74
2021/07/10 04:42:43;;;;;;;5.15;3.25;;;22.20;61.10;;;;;;5033024;28;20024;-73
2021/07/10 04:45:10;;;;;;;5.18;3.20;;;22.20;61.10;;;;;;5032997;28;20025;-74
2021/07/10 04:47:36;;;;;;;5.18;3.13;;;22.30;61.10;;;;;;5032848;28;20029;-73
2021/07/10 04:50:04;;;;;;;5.88;3.42;;;22.20;61.00;;;;;;5032966;28;20033;-74
2021/07/10 04:52:29;;;;;;;5.68;3.72;;;22.30;61.00;;;;;;5032950;28;20053;-74
2021/07/10 04:54:55;;;;;;;5.65;3.63;;;22.30;61.00;;;;;;5048535;28;20485;-74
2021/07/10 04:57:21;;;;;;;5.65;3.45;;;22.20;61.00;;;;;;5034143;28;20477;-74
2021/07/10 04:59:46;;;;;;;6.15;3.75;;;22.20;61.00;;;;;;5037350;28;20039;-74
2021/07/10 05:02:12;;;;;;;5.70;3.28;;;22.30;61.00;;;;;;5032863;28;20152;-74
2021/07/10 05:04:37;;;;;;;6.63;3.78;;;22.30;60.90;;;;;;5032824;28;20025;-74
2021/07/10 05:07:03;;;;;;;5.20;3.33;;;22.30;60.90;;;;;;5032798;28;20051;-74
2021/07/10 05:09:29;;;;;;;5.30;3.40;;;22.30;60.90;;;;;;5032707;28;20029;-74
2021/07/10 05:11:54;;;;;;;6.32;3.83;;;22.30;60.80;;;;;;5032587;28;20492;-74
2021/07/10 05:14:20;;;;;;;5.88;3.42;;;22.30;60.90;;;;;;5035210;28;20059;-74
2021/07/10 05:16:47;;;;;;;5.68;3.63;;;22.30;60.90;;;;;;5036883;28;20014;-74
2021/07/10 05:19:12;;;;;;;5.28;3.40;;;22.30;60.90;;;;;;5036668;28;20051;-74
2021/07/10 05:21:38;;;;;;;5.20;3.22;;;22.30;60.90;;;;;;5036643;28;20017;-74
2021/07/10 05:24:04;;;;;;;6.00;3.80;;;22.30;60.90;;;;;;5036575;28;20100;-74
2021/07/10 05:26:31;;;;;;;5.50;3.70;;;22.30;60.90;;;;;;5036290;28;20035;-74
2021/07/10 05:28:57;;;;;;;6.30;3.88;;;22.20;60.90;;;;;;5036726;28;20025;-74
2021/07/10 05:31:23;;;;;;;7.30;3.72;;;22.30;60.90;;;;;;5036478;28;20380;-73
2021/07/10 05:33:48;;;;;;;5.50;3.30;;;22.30;60.80;;;;;;5034937;28;20053;-74
2021/07/10 05:36:14;;;;;;;6.18;3.63;;;22.30;60.80;;;;;;5036290;28;20034;-74
2021/07/10 05:38:39;;;;;;;5.50;3.70;;;22.30;60.80;;;;;;5036131;28;20116;-74
2021/07/10 05:41:05;;;;;;;6.32;3.80;;;22.30;60.80;;;;;;5036160;28;20040;-73
2021/07/10 05:43:31;;;;;;;5.32;3.60;;;22.30;60.80;;;;;;5036414;28;20017;-74
2021/07/10 05:45:56;;;;;;;5.28;3.30;;;22.30;60.90;;;;;;5036142;28;20033;-74
2021/07/10 05:48:23;;;;;;;5.53;3.50;;;22.30;60.80;;;;;;5036137;28;20052;-74
2021/07/10 05:50:49;;;;;;;4.97;3.28;;;22.30;60.80;;;;;;5036249;28;20060;-74
2021/07/10 05:53:15;;;;;;;6.15;3.75;;;22.30;60.80;;;;;;5036246;28;20040;-74
2021/07/10 05:55:41;;;;;;;5.80;3.72;;;22.20;60.80;;;;;;5036259;28;20025;-73
2021/07/10 05:58:06;;;;;;;6.28;3.35;;;22.20;60.90;;;;;;5035993;28;20021;-73
2021/07/10 06:00:33;;;;;;;6.88;4.03;;;22.20;60.90;;;;;;5035884;28;20055;-73
2021/07/10 06:02:59;;;;;;;6.05;3.72;;;22.20;60.90;;;;;;5035945;28;20026;-73
2021/07/10 06:05:27;;;;;;;7.72;3.83;;;22.20;60.80;;;;;;5035698;28;20030;-74
2021/07/10 06:07:53;;;;;;;5.32;3.25;;;22.30;60.80;;;;;;5036057;28;20033;-74
2021/07/10 06:10:19;;;;;;;6.18;3.50;;;22.30;60.80;;;;;;5035734;28;20424;-74
2021/07/10 06:12:45;;;;;;;5.57;3.60;;;22.30;60.60;;;;;;5035584;28;20083;-74
2021/07/10 06:15:11;;;;;;;5.18;3.33;;;22.30;60.60;;;;;;5035962;28;20410;-74
2021/07/10 06:17:39;;;;;;;6.20;3.70;;;22.40;60.60;;;;;;5035573;28;20029;-75
2021/07/10 06:20:07;;;;;;;5.90;3.65;;;22.40;60.50;;;;;;5034119;28;20371;-75
2021/07/10 06:22:33;;;;;;;5.13;3.33;;;22.40;60.50;;;;;;5035488;28;20029;-73
2021/07/10 06:24:59;;;;;;;6.00;3.60;;;22.40;60.50;;;;;;5034375;28;20108;-73
2021/07/10 06:27:24;;;;;;;5.50;3.40;;;22.40;60.40;;;;;;5035358;28;20036;-73
2021/07/10 06:29:50;;;;;;;5.97;3.78;;;22.40;60.40;;;;;;5035364;28;20105;-73
2021/07/10 06:32:15;;;;;;;6.82;3.67;;;22.40;60.50;;;;;;5035016;28;20025;-73
2021/07/10 06:34:41;;;;;;;6.05;3.67;;;22.40;60.40;;;;;;5035403;28;20067;-73
2021/07/10 06:37:06;;;;;;;6.03;3.45;;;22.40;60.40;;;;;;5035174;28;20485;-73
2021/07/10 06:39:32;;;;;;;5.70;3.28;;;22.40;60.40;;;;;;5035251;28;20039;-73
2021/07/10 06:41:58;;;;;;;6.00;3.50;;;22.40;60.50;;;;;;5035204;28;20021;-73
2021/07/10 06:44:24;;;;;;;5.75;3.83;;;22.40;60.50;;;;;;5034960;28;20037;-73
2021/07/10 06:46:49;;;;;;;5.55;3.45;;;22.40;60.50;;;;;;5034846;28;20029;-73
2021/07/10 06:49:15;;;;;;;5.97;3.65;;;22.40;60.50;;;;;;5034809;28;20049;-73
2021/07/10 06:51:42;;;;;;;6.50;3.80;;;22.40;60.50;;;;;;5034825;28;20040;-73
2021/07/10 06:54:08;;;;;;;5.57;3.25;;;22.40;60.40;;;;;;5034811;28;20028;-73
2021/07/10 06:56:34;;;;;;;6.20;3.97;;;22.40;60.40;;;;;;5034722;28;20080;-73
2021/07/10 06:58:59;;;;;;;5.65;3.78;;;22.40;60.40;;;;;;5034833;28;20033;-74
2021/07/10 07:01:27;;;;;;;4.72;3.00;;;22.40;60.40;;;;;;5035042;28;20026;-73
2021/07/10 07:03:53;;;;;;;5.65;3.65;;;22.40;60.40;;;;;;5034668;28;20036;-73
2021/07/10 07:06:19;;;;;;;5.45;3.30;;;22.40;60.40;;;;;;5034708;28;20026;-73
2021/07/10 07:08:44;;;;;;;6.07;3.20;;;22.50;60.40;;;;;;5034580;28;20381;-73
2021/07/10 07:11:11;;;;;;;5.65;3.70;;;22.50;60.40;;;;;;5034516;28;20025;-73
2021/07/10 07:13:36;;;;;;;7.40;4.00;;;22.50;60.30;;;;;;5034541;28;20028;-74
2021/07/10 07:16:02;;;;;;;7.13;3.50;;;22.50;60.30;;;;;;5034600;28;20029;-74
2021/07/10 07:18:28;;;;;;;5.43;3.22;;;22.50;60.30;;;;;;5036105;28;20026;-73
2021/07/10 07:20:53;;;;;;;5.80;3.47;;;22.50;60.30;;;;;;5034758;28;20036;-74
2021/07/10 07:23:19;;;;;;;5.88;3.88;;;22.50;60.30;;;;;;5034549;28;20022;-74
2021/07/10 07:25:44;;;;;;;5.15;3.28;;;22.50;60.30;;;;;;5034393;28;20396;-73
2021/07/10 07:28:10;;;;;;;6.30;3.85;;;22.50;60.30;;;;;;5034197;28;20026;-74
2021/07/10 07:30:35;;;;;;;5.45;3.40;;;22.50;60.30;;;;;;5034124;28;20449;-73
2021/07/10 07:33:01;;;;;;;6.13;3.40;;;22.50;60.30;;;;;;5034191;28;20050;-74
2021/07/10 07:35:27;;;;;;;5.90;3.55;;;22.50;60.30;;;;;;5034302;28;20032;-74
2021/07/10 07:37:52;;;;;;;5.82;3.75;;;22.50;60.30;;;;;;5033648;28;20047;-73
2021/07/10 07:40:18;;;;;;;4.88;3.10;;;22.50;60.30;;;;;;5032735;28;20036;-73
2021/07/10 07:42:46;;;;;;;5.18;3.30;;;22.50;60.20;;;;;;5034206;28;20041;-73
2021/07/10 07:45:13;;;;;;;6.25;3.60;;;22.50;60.20;;;;;;5038211;28;20034;-74
2021/07/10 07:47:39;;;;;;;5.18;3.60;;;22.50;60.20;;;;;;5034020;28;20018;-73
2021/07/10 07:50:08;;;;;;;6.00;3.00;;;22.50;60.20;;;;;;5033858;28;20013;-73
2021/07/10 07:52:33;;;;;;;5.88;3.63;;;22.50;60.20;;;;;;5033645;28;20030;-73
2021/07/10 07:55:01;;;;;;;5.13;3.15;;;22.60;60.20;;;;;;5033618;28;20027;-73
2021/07/10 07:57:27;;;;;;;5.22;3.22;;;22.50;60.10;;;;;;5033787;28;20021;-73
2021/07/10 07:59:52;;;;;;;5.28;3.40;;;22.50;60.10;;;;;;5033670;28;20501;-74
2021/07/10 08:02:18;;;;;;;4.75;3.35;;;22.60;60.10;;;;;;5033522;28;20033;-73
2021/07/10 08:04:43;;;;;;;5.22;3.40;;;22.60;60.10;;;;;;5032116;28;20068;-73
2021/07/10 08:07:09;;;;;;;5.03;3.20;;;22.60;60.10;;;;;;5033346;28;20033;-73
2021/07/10 08:09:34;;;;;;;5.82;3.38;;;22.60;60.10;;;;;;5033294;28;20032;-73
2021/07/10 08:12:00;;;;;;;5.95;3.20;;;22.60;60.10;;;;;;5033410;28;20022;-73
2021/07/10 08:14:26;;;;;;;5.20;3.22;;;22.60;60.10;;;;;;5033505;28;20057;-74
2021/07/10 08:16:51;;;;;;;4.75;3.10;;;22.70;60.10;;;;;;5033194;28;20032;-74
2021/07/10 08:19:18;;;;;;;5.07;3.15;;;22.60;60.10;;;;;;5033894;28;20121;-73
2021/07/10 08:21:44;;;;;;;5.10;3.10;;;22.60;60.10;;;;;;5033676;28;20040;-74
2021/07/10 08:24:10;;;;;;;5.50;3.25;;;22.60;60.00;;;;;;5033585;28;20029;-73
2021/07/10 08:26:36;;;;;;;4.70;3.05;;;22.70;60.00;;;;;;5033191;28;20048;-74
2021/07/10 08:29:03;;;;;;;5.07;3.05;;;22.70;60.00;;;;;;5033015;28;20489;-74
2021/07/10 08:31:28;;;;;;;5.50;3.10;;;22.70;60.00;;;;;;5033430;28;20091;-73
2021/07/10 08:33:54;;;;;;;5.32;3.70;;;22.70;60.00;;;;;;5032781;28;20497;-74
2021/07/10 08:36:20;;;;;;;4.93;3.28;;;22.70;59.90;;;;;;5033061;28;20060;-74
2021/07/10 08:38:46;;;;;;;5.10;3.00;;;22.70;59.90;;;;;;5032983;28;20396;-73
2021/07/10 08:41:12;;;;;;;5.40;3.17;;;22.70;59.90;;;;;;5032978;28;20034;-73
2021/07/10 08:43:40;;;;;;;5.53;3.22;;;22.70;59.90;;;;;;5031685;28;20116;-74
2021/07/10 08:46:08;;;;;;;5.40;3.58;;;22.70;59.90;;;;;;5032835;28;20075;-74
2021/07/10 08:48:34;;;;;;;5.53;3.30;;;22.80;59.90;;;;;;5032042;28;20395;-74
2021/07/10 08:51:05;;;;;;;5.88;3.15;;;22.80;59.90;;;;;;5032897;28;20026;-74
2021/07/10 08:53:31;;;;;;;5.13;3.15;;;22.80;59.90;;;;;;5032884;28;20082;-73
2021/07/10 08:55:57;;;;;;;5.18;3.00;;;22.80;59.90;;;;;;5033051;28;20022;-74
2021/07/10 08:58:23;;;;;;;6.07;3.17;;;22.80;59.90;;;;;;5033009;28;20051;-74
2021/07/10 09:00:49;;;;;;;6.22;3.58;;;22.80;59.80;;;;;;5039705;28;20054;-74
2021/07/10 09:03:16;;;;;;;5.45;3.30;;;22.80;59.90;;;;;;5033019;28;20477;-74
2021/07/10 09:05:42;;;;;;;4.85;3.17;;;22.80;59.90;;;;;;5033047;28;20029;-74
2021/07/10 09:08:12;;;;;;;5.43;3.42;;;22.80;59.90;;;;;;5032835;28;20044;-74
2021/07/10 09:10:39;;;;;;;6.65;3.63;;;22.80;59.80;;;;;;5032629;28;20029;-74
2021/07/10 09:13:05;;;;;;;5.82;3.55;;;22.80;59.90;;;;;;5032591;28;20061;-74
2021/07/10 09:15:32;;;;;;;5.82;3.50;;;22.80;59.80;;;;;;5032861;28;20025;-73
2021/07/10 09:17:58;;;;;;;5.63;3.67;;;22.80;59.80;;;;;;5031506;28;20021;-74
2021/07/10 09:20:26;;;;;;;4.97;3.13;;;22.80;59.90;;;;;;5033177;28;20038;-73
2021/07/10 09:22:53;;;;;;;6.82;3.20;;;22.80;59.80;;;;;;5032348;28;20021;-74
2021/07/10 09:25:23;;;;;;;5.10;3.10;;;22.80;59.80;;;;;;5032590;28;20094;-74
2021/07/10 09:27:50;;;;;;;4.40;2.80;;;22.80;59.80;;;;;;5032906;28;20036;-74
2021/07/10 09:30:16;;;;;;;5.07;3.13;;;22.90;59.80;;;;;;5032903;28;20061;-75
2021/07/10 09:32:42;;;;;;;5.43;3.10;;;22.80;59.70;;;;;;5031956;28;20084;-75
2021/07/10 09:35:10;;;;;;;5.15;3.30;;;22.90;59.70;;;;;;5032538;28;20440;-74
2021/07/10 09:37:38;;;;;;;5.75;3.25;;;22.90;59.80;;;;;;5032435;28;20390;-74
2021/07/10 09:40:13;;;;;;;5.22;3.22;;;22.90;59.80;;;;;;5033206;28;20037;-74
2021/07/10 09:42:41;;;;;;;4.95;3.10;;;22.90;59.70;;;;;;5032721;28;20140;-74
2021/07/10 09:45:15;;;;;;;6.15;3.85;;;22.90;59.70;;;;;;5033155;28;20021;-74
2021/07/10 09:47:42;;;;;;;6.65;4.03;;;22.90;59.70;;;;;;5033180;28;20049;-75
2021/07/10 09:50:09;;;;;;;4.93;3.15;;;22.90;59.70;;;;;;5038797;28;20032;-74
2021/07/10 09:52:38;;;;;;;5.57;3.33;;;22.90;59.70;;;;;;5032800;28;20048;-75
2021/07/10 09:55:06;;;;;;;6.10;3.25;;;22.90;59.70;;;;;;5032031;28;20029;-73
2021/07/10 09:57:37;;;;;;;4.13;2.65;;;22.90;59.70;;;;;;5030912;28;20428;-74
2021/07/10 10:00:09;;;;;;;6.13;3.28;;;22.90;59.70;;;;;;5034100;28;20493;-75
2021/07/10 10:02:45;;;;;;;5.47;3.30;;;23.00;59.70;;;;;;5036528;28;20555;-74
2021/07/10 10:05:19;;;;;;;4.57;2.88;;;22.90;59.70;;;;;;5038692;28;20029;-74
2021/07/10 10:07:50;;;;;;;5.65;3.03;;;22.90;59.70;;;;;;5037681;28;20106;-74
2021/07/10 10:10:22;;;;;;;5.13;3.05;;;23.00;59.70;;;;;;5037570;28;20021;-75
2021/07/10 10:13:09;;;;;;;6.15;3.58;;;22.90;59.70;;;;;;5037205;28;20040;-75
2021/07/10 10:15:46;;;;;;;6.50;3.47;;;22.90;59.60;;;;;;5037442;28;20025;-75
2021/07/10 10:18:14;;;;;;;5.57;3.00;;;23.00;59.70;;;;;;5037131;28;20024;-74
2021/07/10 10:20:41;;;;;;;4.65;3.05;;;22.90;59.70;;;;;;5037134;28;20075;-74
2021/07/10 10:23:07;;;;;;;5.35;3.17;;;23.00;59.70;;;;;;5036756;28;20496;-74
2021/07/10 10:25:34;;;;;;;4.95;3.03;;;23.00;59.60;;;;;;5036911;28;20033;-74
2021/07/10 10:28:02;;;;;;;5.68;3.47;;;23.00;59.60;;;;;;5035896;28;20024;-73
2021/07/10 10:30:28;;;;;;;6.63;3.13;;;23.00;59.60;;;;;;5035294;28;20102;-74
2021/07/10 10:32:54;;;;;;;5.80;3.42;;;23.00;59.60;;;;;;5035995;28;20436;-75
2021/07/10 10:35:19;;;;;;;4.65;2.75;;;23.00;59.60;;;;;;5036188;28;20024;-74
2021/07/10 10:37:45;;;;;;;5.57;3.53;;;23.00;59.60;;;;;;5035453;28;20036;-74
2021/07/10 10:40:21;;;;;;;5.07;3.00;;;23.00;59.60;;;;;;5036202;28;20041;-75
2021/07/10 10:42:52;;;;;;;3.88;2.78;;;23.00;59.60;;;;;;5035909;28;20026;-74
2021/07/10 10:45:35;;;;;;;4.43;2.90;;;23.00;59.60;;;;;;5035236;28;20021;-74
2021/07/10 10:48:02;;;;;;;5.38;3.13;;;23.00;59.60;;;;;;5050688;28;20513;-74
2021/07/10 10:50:30;;;;;;;5.50;2.88;;;23.00;59.60;;;;;;5034898;28;20026;-75
2021/07/10 10:52:57;;;;;;;5.55;3.45;;;23.00;59.60;;;;;;5035221;28;20112;-75
2021/07/10 10:55:34;;;;;;;4.53;3.03;;;23.00;59.60;;;;;;5033796;28;20696;-75
2021/07/10 10:58:22;;;;;;;4.60;2.83;;;23.00;59.50;;;;;;5035088;28;20037;-75
2021/07/10 11:01:07;;;;;;;4.53;2.75;;;23.10;59.60;;;;;;5036647;28;20052;-75
2021/07/10 11:03:36;;;;;;;5.03;2.80;;;23.00;59.50;;;;;;5037802;28;20025;-75
2021/07/10 11:06:02;;;;;;;4.80;2.95;;;23.00;59.50;;;;;;5043141;28;20033;-75
2021/07/10 11:08:29;;;;;;;4.80;3.03;;;23.00;59.60;;;;;;5042021;28;20477;-75
2021/07/10 11:10:56;;;;;;;5.32;3.22;;;23.00;59.60;;;;;;5046283;28;20026;-74
2021/07/10 11:13:35;;;;;;;5.25;3.35;;;23.00;59.60;;;;;;5051329;28;20021;-75
2021/07/10 11:16:07;;;;;;;5.75;3.40;;;23.10;59.50;;;;;;5045674;28;20144;-75
2021/07/10 11:18:58;;;;;;;5.45;3.15;;;23.10;59.60;;;;;;5043831;28;20021;-75
2021/07/10 11:21:39;;;;;;;5.28;3.10;;;23.00;59.60;;;;;;5041121;28;20397;-75
2021/07/10 11:24:19;;;;;;;4.72;2.90;;;23.10;59.50;;;;;;5043556;28;20029;-75
2021/07/10 11:26:54;;;;;;;4.68;2.88;;;23.10;59.50;;;;;;5043880;28;20095;-74
2021/07/10 11:29:21;;;;;;;4.57;2.92;;;23.10;59.60;;;;;;5043394;28;20017;-75
2021/07/10 11:31:47;;;;;;;6.28;3.22;;;23.10;59.50;;;;;;5045091;28;20040;-74
2021/07/10 11:34:18;;;;;;;4.38;2.72;;;23.10;59.50;;;;;;5041330;28;20073;-75
2021/07/10 11:36:47;;;;;;;4.60;2.85;;;23.10;59.50;;;;;;5036790;28;20056;-74
2021/07/10 11:39:24;;;;;;;5.20;2.90;;;23.10;59.60;;;;;;5035830;28;20088;-75
2021/07/10 11:41:58;;;;;;;4.15;2.78;;;23.10;59.50;;;;;;5036340;28;20374;-75
2021/07/10 11:44:26;;;;;;;5.10;3.25;;;23.10;59.50;;;;;;5036326;28;20500;-74
2021/07/10 11:47:01;;;;;;;4.78;3.25;;;23.10;59.50;;;;;;5037735;28;20064;-75
2021/07/10 11:49:35;;;;;;;4.10;2.65;;;23.10;59.50;;;;;;5044158;28;20033;-76
2021/07/10 11:52:01;;;;;;;5.63;3.20;;;23.20;59.50;;;;;;5045590;28;20144;-75
2021/07/10 11:54:27;;;;;;;5.00;2.92;;;23.20;59.40;;;;;;5045255;28;20408;-75
2021/07/10 11:56:53;;;;;;;4.95;2.60;;;23.10;59.50;;;;;;5045111;28;20026;-75
2021/07/10 11:59:18;;;;;;;3.97;2.78;;;23.20;59.50;;;;;;5040095;28;20047;-75
2021/07/10 12:01:44;;;;;;;5.25;2.85;;;23.20;59.40;;;;;;5035135;28;20025;-75
2021/07/10 12:04:10;;;;;;;4.82;3.00;;;23.20;59.40;;;;;;5035225;28;20033;-75
2021/07/10 12:06:36;;;;;;;4.65;2.88;;;23.20;59.40;;;;;;5034395;28;20046;-75
2021/07/10 12:09:03;;;;;;;3.53;2.35;;;23.20;59.40;;;;;;5034164;28;20025;-75
2021/07/10 12:11:29;;;;;;;5.28;3.33;;;23.20;59.40;;;;;;5033743;28;20108;-75
2021/07/10 12:14:06;;;;;;;4.55;2.58;;;23.30;59.40;;;;;;5033866;28;20100;-75
2021/07/10 12:16:32;;;;;;;4.63;2.88;;;23.30;59.30;;;;;;5034291;28;20029;-75
2021/07/10 12:18:57;;;;;;;4.55;2.70;;;23.30;59.20;;;;;;5033667;28;20033;-75
2021/07/10 12:21:23;;;;;;;4.22;2.67;;;23.40;59.20;;;;;;5033849;28;20448;-75
2021/07/10 12:23:58;;;;;;;4.03;2.65;;;23.40;59.10;;;;;;5033395;28;20092;-75
2021/07/10 12:26:26;;;;;;;4.90;2.67;;;23.50;59.00;;;;;;5033367;28;20116;-75
2021/07/10 12:28:56;;;;;;;5.47;2.78;;;23.50;58.90;;;;;;5033147;28;20123;-75
2021/07/10 12:31:25;;;;;;;5.55;3.08;;;23.50;58.90;;;;;;5033287;28;20222;-74
2021/07/10 12:33:57;;;;;;;4.88;3.20;;;23.50;58.90;;;;;;5033358;28;20068;-75
2021/07/10 12:36:27;;;;;;;5.78;3.22;;;23.50;58.80;;;;;;5033872;28;20081;-75
2021/07/10 12:39:00;;;;;;;4.70;2.72;;;23.50;58.70;;;;;;5033309;28;20108;-75
2021/07/10 12:41:28;;;;;;;5.22;3.20;;;23.70;58.70;;;;;;5033536;28;20495;-76
2021/07/10 12:44:06;;;;;;;4.00;2.65;;;23.70;58.60;;;;;;5033339;28;20480;-75
2021/07/10 12:46:55;;;;;;;5.10;3.17;;;23.70;58.50;;;;;;5033702;28;20029;-76